Time;durP1;ratioP1;P1;durP2;ratioP2;P2;SDS_P1;SDS_P2;PMS_P1;PMS_P2;Temp;Humidity;BMP_temperature;BMP_pressure;BME280_temperature;BME280_humidity;BME280_pressure;Samples;Min_cycle;Max_cycle;Signal;HPM_P1;HPM_P2
2023/04/08 00:00:05;;;;;;;;;;;;;;;1.69;100.00;97490.80;110215;1242;69304;-79
2023/04/08 00:02:57;;;;;;;;;;;;;;;1.70;100.00;97490.05;110338;1242;58916;-78
2023/04/08 00:05:26;;;;;;;;;;;;;;;1.71;100.00;97492.44;110299;1239;58938;-78
2023/04/08 00:07:55;;;;;;;;;;;;;;;1.73;100.00;97490.31;110557;1241;70566;-79
2023/04/08 00:10:25;;;;;;;;;;;;;;;1.74;100.00;97491.98;110199;1240;68484;-81
2023/04/08 00:12:55;;;;;;;;;;;;;;;1.73;100.00;97490.98;110259;1240;68507;-78
2023/04/08 00:15:25;;;;;;;;;;;;;;;1.74;100.00;97486.48;110205;1241;58944;-78
2023/04/08 00:17:54;;;;;;;;;;;;;;;1.74;100.00;97485.77;110190;1246;58930;-79
2023/04/08 00:20:24;;;;;;;;;;;;;;;1.75;100.00;97488.99;110318;1243;69612;-79
2023/04/08 00:22:52;;;;;;;;;;;;;;;1.75;100.00;97485.58;110325;1240;68416;-79
2023/04/08 00:25:21;;;;;;;;;;;;;;;1.74;100.00;97487.50;110415;1240;68770;-79
2023/04/08 00:27:53;;;;;;;;;;;;;;;1.72;100.00;97484.66;110291;1241;58906;-78
2023/04/08 00:30:21;;;;;;;;;;;;;;;1.73;100.00;97484.82;110413;1241;58871;-79
2023/04/08 00:32:52;;;;;;;;;;;;;;;1.72;100.00;97484.66;110315;1240;70429;-78
2023/04/08 00:35:21;;;;;;;;;;;;;;;1.70;100.00;97484.38;110207;1241;69204;-78
2023/04/08 00:37:51;;;;;;;;;;;;;;;1.70;100.00;97484.55;110383;1239;69262;-78
2023/04/08 00:40:21;;;;;;;;;;;;;;;1.70;100.00;97485.09;110304;1240;58856;-78
2023/04/08 00:42:51;;;;;;;;;;;;;;;1.71;100.00;97485.03;110337;1242;58955;-78
2023/04/08 00:45:21;;;;;;;;;;;;;;;1.74;100.00;97484.42;110278;1243;69816;-78
2023/04/08 00:47:51;;;;;;;;;;;;;;;1.75;100.00;97479.05;110299;1242;69273;-78
2023/04/08 00:50:20;;;;;;;;;;;;;;;1.76;100.00;97482.63;110326;1241;69292;-79
2023/04/08 00:52:49;;;;;;;;;;;;;;;1.77;100.00;97481.73;110207;1242;58848;-78
2023/04/08 00:55:19;;;;;;;;;;;;;;;1.79;100.00;97478.56;110423;1240;58954;-78
2023/04/08 00:57:48;;;;;;;;;;;;;;;1.81;100.00;97475.74;110279;1241;70440;-78
2023/04/08 01:00:17;;;;;;;;;;;;;;;1.82;100.00;97475.88;110324;1242;69197;-78
2023/04/08 01:02:45;;;;;;;;;;;;;;;1.84;100.00;97474.60;110155;1244;69174;-79
2023/04/08 01:05:20;;;;;;;;;;;;;;;1.85;100.00;97476.14;110402;1240;58904;-78
2023/04/08 01:07:49;;;;;;;;;;;;;;;1.85;100.00;97477.84;110427;1241;58889;-78
2023/04/08 01:10:20;;;;;;;;;;;;;;;1.85;100.00;97479.73;110347;1242;69852;-78
2023/04/08 01:12:56;;;;;;;;;;;;;;;1.87;100.00;97479.67;110256;1241;68227;-78
2023/04/08 01:15:25;;;;;;;;;;;;;;;1.88;100.00;97480.98;110407;1241;68255;-78
2023/04/08 01:17:57;;;;;;;;;;;;;;;1.89;100.00;97480.96;110307;1239;58935;-79
2023/04/08 01:20:28;;;;;;;;;;;;;;;1.88;100.00;97480.97;110397;1241;58925;-78
2023/04/08 01:23:16;;;;;;;;;;;;;;;1.88;100.00;97482.00;110184;1242;69210;-78
2023/04/08 01:25:48;;;;;;;;;;;;;;;1.89;100.00;97485.42;110436;1241;69162;-79
2023/04/08 01:28:20;;;;;;;;;;;;;;;1.89;100.00;97483.17;110459;1241;69135;-78
2023/04/08 01:30:50;;;;;;;;;;;;;;;1.90;100.00;97482.83;110295;1242;58923;-79
2023/04/08 01:33:21;;;;;;;;;;;;;;;1.90;100.00;97484.02;110418;1241;58948;-78
2023/04/08 01:35:51;;;;;;;;;;;;;;;1.90;100.00;97484.00;110440;1241;69950;-79
2023/04/08 01:38:21;;;;;;;;;;;;;;;1.90;100.00;97485.04;110471;1241;68893;-78
2023/04/08 01:40:51;;;;;;;;;;;;;;;1.89;100.00;97485.26;110283;1240;69279;-78
2023/04/08 01:43:20;;;;;;;;;;;;;;;1.88;100.00;97485.48;110391;1240;58953;-78
2023/04/08 01:45:53;;;;;;;;;;;;;;;1.88;100.00;97485.61;110286;1241;58898;-79
2023/04/08 01:48:23;;;;;;;;;;;;;;;1.89;100.00;97488.85;110354;1241;68645;-78
2023/04/08 01:50:53;;;;;;;;;;;;;;;1.89;100.00;97490.93;110316;1242;69217;-78
2023/04/08 01:53:24;;;;;;;;;;;;;;;1.89;100.00;97487.14;110256;1240;68585;-78
2023/04/08 01:56:00;;;;;;;;;;;;;;;1.88;100.00;97488.73;110333;1240;58929;-78
2023/04/08 01:58:34;;;;;;;;;;;;;;;1.88;100.00;97488.20;110476;1240;58899;-78
2023/04/08 02:01:05;;;;;;;;;;;;;;;1.88;100.00;97491.12;110283;1240;69762;-78
2023/04/08 02:03:35;;;;;;;;;;;;;;;1.88;100.00;97488.73;110306;1244;68327;-78
2023/04/08 02:06:06;;;;;;;;;;;;;;;1.87;100.00;97486.86;110258;1243;69093;-78
2023/04/08 02:08:35;;;;;;;;;;;;;;;1.85;100.00;97485.23;110197;1242;58944;-78
2023/04/08 02:11:05;;;;;;;;;;;;;;;1.83;100.00;97485.13;110219;1241;58856;-78
2023/04/08 02:13:34;;;;;;;;;;;;;;;1.83;100.00;97481.02;110298;1243;69866;-78
2023/04/08 02:16:15;;;;;;;;;;;;;;;1.82;100.00;97483.13;110310;1241;67852;-78
2023/04/08 02:18:48;;;;;;;;;;;;;;;1.80;100.00;97485.75;110312;1242;69269;-78
2023/04/08 02:21:20;;;;;;;;;;;;;;;1.78;100.00;97483.05;110376;1240;58964;-78
2023/04/08 02:23:50;;;;;;;;;;;;;;;1.78;100.00;97480.66;110174;1242;58862;-78
2023/04/08 02:26:23;;;;;;;;;;;;;;;1.78;100.00;97480.48;110212;1240;70597;-79
2023/04/08 02:28:55;;;;;;;;;;;;;;;1.77;100.00;97485.20;110341;1242;69777;-80
2023/04/08 02:31:25;;;;;;;;;;;;;;;1.75;100.00;97485.06;110249;1241;68544;-78
2023/04/08 02:33:55;;;;;;;;;;;;;;;1.74;100.00;97483.39;110238;1241;58958;-78
2023/04/08 02:36:25;;;;;;;;;;;;;;;1.73;100.00;97481.02;110315;1241;58876;-78
2023/04/08 02:38:54;;;;;;;;;;;;;;;1.72;100.00;97476.60;110157;1240;71153;-77
2023/04/08 02:41:27;;;;;;;;;;;;;;;1.71;100.00;97481.63;110219;1242;68637;-77
2023/04/08 02:43:56;;;;;;;;;;;;;;;1.68;100.00;97479.49;110175;1240;69724;-78
2023/04/08 02:46:26;;;;;;;;;;;;;;;1.67;100.00;97482.30;110291;1240;58959;-78
2023/04/08 02:48:55;;;;;;;;;;;;;;;1.67;100.00;97479.70;110206;1241;58941;-77
2023/04/08 02:51:26;;;;;;;;;;;;;;;1.66;100.00;97482.14;110178;1243;70584;-78
2023/04/08 02:53:56;;;;;;;;;;;;;;;1.65;100.00;97480.45;110191;1242;69040;-78
2023/04/08 02:56:26;;;;;;;;;;;;;;;1.64;100.00;97481.36;110177;1242;68802;-78
2023/04/08 02:58:57;;;;;;;;;;;;;;;1.64;100.00;97483.77;110290;1241;58945;-79
2023/04/08 03:01:29;;;;;;;;;;;;;;;1.64;100.00;97485.31;110215;1242;58921;-79
2023/04/08 03:03:58;;;;;;;;;;;;;;;1.64;100.00;97484.95;110232;1242;70238;-78
2023/04/08 03:06:27;;;;;;;;;;;;;;;1.65;100.00;97483.04;110362;1240;69230;-79
2023/04/08 03:08:57;;;;;;;;;;;;;;;1.65;100.00;97483.73;110236;1240;69043;-77
2023/04/08 03:11:26;;;;;;;;;;;;;;;1.64;100.00;97487.04;110326;1240;58908;-78
2023/04/08 03:13:57;;;;;;;;;;;;;;;1.64;100.00;97487.55;110323;1243;58832;-78
2023/04/08 03:16:26;;;;;;;;;;;;;;;1.64;100.00;97491.33;110281;1242;71209;-77
2023/04/08 03:18:56;;;;;;;;;;;;;;;1.64;100.00;97491.85;110330;1242;69128;-77
2023/04/08 03:21:25;;;;;;;;;;;;;;;1.63;100.00;97493.78;110386;1240;69859;-78
2023/04/08 03:23:55;;;;;;;;;;;;;;;1.60;100.00;97495.42;110451;1241;58858;-78
2023/04/08 03:26:26;;;;;;;;;;;;;;;1.59;100.00;97493.06;110420;1239;58945;-78
2023/04/08 03:28:57;;;;;;;;;;;;;;;1.58;100.00;97497.38;110506;1240;71225;-78
2023/04/08 03:31:27;;;;;;;;;;;;;;;1.55;100.00;97497.65;110353;1242;69226;-78
2023/04/08 03:33:56;;;;;;;;;;;;;;;1.51;100.00;97496.05;110399;1239;69751;-78
2023/04/08 03:36:26;;;;;;;;;;;;;;;1.47;100.00;97497.75;110286;1239;58902;-78
2023/04/08 03:38:55;;;;;;;;;;;;;;;1.44;100.00;97499.06;110494;1240;58869;-77
2023/04/08 03:41:26;;;;;;;;;;;;;;;1.41;100.00;97502.23;110424;1241;69850;-78
2023/04/08 03:43:55;;;;;;;;;;;;;;;1.40;100.00;97505.40;110447;1241;69033;-78
2023/04/08 03:46:25;;;;;;;;;;;;;;;1.38;100.00;97506.66;110426;1241;68388;-78
2023/04/08 03:48:54;;;;;;;;;;;;;;;1.37;100.00;97511.02;110505;1240;58871;-78
2023/04/08 03:51:23;;;;;;;;;;;;;;;1.36;100.00;97511.05;110405;1241;58813;-78
2023/04/08 03:53:52;;;;;;;;;;;;;;;1.35;100.00;97513.63;110261;1241;71159;-78
2023/04/08 03:56:22;;;;;;;;;;;;;;;1.35;100.00;97511.25;110452;1239;69368;-78
2023/04/08 03:58:53;;;;;;;;;;;;;;;1.35;100.00;97517.78;110379;1242;68650;-78
2023/04/08 04:01:22;;;;;;;;;;;;;;;1.35;100.00;97516.92;110267;1240;58903;-78
2023/04/08 04:03:51;;;;;;;;;;;;;;;1.35;100.00;97516.21;110395;1241;58874;-78
2023/04/08 04:06:21;;;;;;;;;;;;;;;1.35;100.00;97520.16;110350;1239;70401;-77
2023/04/08 04:08:52;;;;;;;;;;;;;;;1.36;100.00;97520.98;110419;1240;68539;-78
2023/04/08 04:11:21;;;;;;;;;;;;;;;1.39;100.00;97521.08;110291;1241;68676;-78
2023/04/08 04:13:50;;;;;;;;;;;;;;;1.42;100.00;97522.84;110247;1244;58955;-78
2023/04/08 04:16:19;;;;;;;;;;;;;;;1.45;100.00;97529.25;110242;1243;58897;-78
2023/04/08 04:18:48;;;;;;;;;;;;;;;1.49;100.00;97529.11;110126;1244;71183;-78
2023/04/08 04:21:18;;;;;;;;;;;;;;;1.55;100.00;97531.65;110301;1240;68704;-78
2023/04/08 04:23:47;;;;;;;;;;;;;;;1.61;100.00;97531.96;110270;1240;69342;-78
2023/04/08 04:26:16;;;;;;;;;;;;;;;1.65;100.00;97531.14;110390;1241;58940;-78
2023/04/08 04:28:44;;;;;;;;;;;;;;;1.69;100.00;97533.39;110288;1239;58820;-78
2023/04/08 04:31:25;;;;;;;;;;;;;;;1.74;100.00;97534.24;110225;1241;69936;-78
2023/04/08 04:33:54;;;;;;;;;;;;;;;1.79;100.00;97538.37;110322;1242;69824;-78
2023/04/08 04:36:22;;;;;;;;;;;;;;;1.82;100.00;97544.80;110270;1242;69479;-78
2023/04/08 04:38:51;;;;;;;;;;;;;;;1.84;100.00;97546.45;110333;1240;58937;-77
2023/04/08 04:41:20;;;;;;;;;;;;;;;1.85;100.00;97549.86;110394;1240;58855;-78
2023/04/08 04:43:49;;;;;;;;;;;;;;;1.84;100.00;97549.71;110407;1239;70540;-78
2023/04/08 04:46:18;;;;;;;;;;;;;;;1.84;100.00;97552.63;110481;1241;68464;-78
2023/04/08 04:48:47;;;;;;;;;;;;;;;1.84;100.00;97554.02;110347;1240;69284;-78
2023/04/08 04:51:16;;;;;;;;;;;;;;;1.83;100.00;97556.63;110186;1240;58923;-77
2023/04/08 04:53:45;;;;;;;;;;;;;;;1.81;100.00;97561.50;110461;1241;58892;-78
2023/04/08 04:56:14;;;;;;;;;;;;;;;1.83;100.00;97561.60;110520;1240;71151;-77
2023/04/08 04:58:43;;;;;;;;;;;;;;;1.86;100.00;97563.92;110474;1240;69382;-78
2023/04/08 05:01:12;;;;;;;;;;;;;;;1.86;100.00;97565.63;110298;1240;68533;-78
2023/04/08 05:03:40;;;;;;;;;;;;;;;1.87;100.00;97566.44;110333;1240;58953;-78
2023/04/08 05:06:09;;;;;;;;;;;;;;;1.91;100.00;97571.14;110387;1242;59288;-77
2023/04/08 05:08:38;;;;;;;;;;;;;;;1.93;100.00;97574.98;110378;1241;71156;-78
2023/04/08 05:11:10;;;;;;;;;;;;;;;1.95;100.00;97580.42;110481;1241;69378;-77
2023/04/08 05:13:38;;;;;;;;;;;;;;;1.96;100.00;97582.27;110289;1241;69722;-78
2023/04/08 05:16:07;;;;;;;;;;;;;;;2.00;100.00;97586.77;110265;1239;58865;-78
2023/04/08 05:18:36;;;;;;;;;;;;;;;2.08;100.00;97589.60;110385;1240;58930;-78
2023/04/08 05:21:05;;;;;;;;;;;;;;;2.15;100.00;97591.41;110312;1241;69892;-77
2023/04/08 05:23:33;;;;;;;;;;;;;;;2.21;100.00;97596.69;110339;1240;68504;-78
2023/04/08 05:26:05;;;;;;;;;;;;;;;2.25;100.00;97599.11;110194;1241;69121;-78
2023/04/08 05:28:34;;;;;;;;;;;;;;;2.33;100.00;97601.40;110313;1241;58892;-78
2023/04/08 05:31:03;;;;;;;;;;;;;;;2.38;100.00;97598.14;110329;1243;58839;-77
2023/04/08 05:33:32;;;;;;;;;;;;;;;2.43;100.00;97597.95;110409;1241;70511;-78
2023/04/08 05:36:01;;;;;;;;;;;;;;;2.44;100.00;97599.60;110278;1243;69739;-78
2023/04/08 05:38:30;;;;;;;;;;;;;;;2.51;100.00;97602.64;110299;1242;69232;-78
2023/04/08 05:40:59;;;;;;;;;;;;;;;2.60;100.00;97607.12;110315;1242;58951;-78
2023/04/08 05:43:27;;;;;;;;;;;;;;;2.69;100.00;97607.62;110411;1241;58901;-78
2023/04/08 05:45:56;;;;;;;;;;;;;;;2.77;100.00;97608.54;110398;1241;70487;-78
2023/04/08 05:48:24;;;;;;;;;;;;;;;2.85;100.00;97613.92;110349;1240;68384;-78
2023/04/08 05:50:53;;;;;;;;;;;;;;;2.95;100.00;97615.58;110198;1240;69829;-77
2023/04/08 05:53:22;;;;;;;;;;;;;;;3.06;100.00;97613.27;110329;1243;58880;-77
2023/04/08 05:55:51;;;;;;;;;;;;;;;3.17;100.00;97615.42;110435;1241;58825;-76
2023/04/08 05:58:19;;;;;;;;;;;;;;;3.24;100.00;97616.49;110426;1241;70552;-77
2023/04/08 06:00:48;;;;;;;;;;;;;;;3.38;100.00;97617.30;110514;1239;68566;-78
2023/04/08 06:03:16;;;;;;;;;;;;;;;3.56;100.00;97610.68;110440;1239;68253;-77
2023/04/08 06:05:48;;;;;;;;;;;;;;;3.71;100.00;97613.86;110391;1242;58938;-77
2023/04/08 06:08:16;;;;;;;;;;;;;;;3.83;100.00;97619.08;110329;1240;58876;-76
2023/04/08 06:10:49;;;;;;;;;;;;;;;3.91;100.00;97621.29;110449;1240;71007;-77
2023/04/08 06:13:19;;;;;;;;;;;;;;;4.17;100.00;97623.30;110443;1241;69199;-77
2023/04/08 06:15:50;;;;;;;;;;;;;;;4.37;100.00;97627.05;110397;1241;69570;-78
2023/04/08 06:18:18;;;;;;;;;;;;;;;4.57;100.00;97627.04;110568;1240;58971;-78
2023/04/08 06:20:47;;;;;;;;;;;;;;;4.68;100.00;97626.52;110376;1241;58876;-78
2023/04/08 06:23:15;;;;;;;;;;;;;;;4.75;99.89;97624.83;110356;1241;69887;-78
2023/04/08 06:25:44;;;;;;;;;;;;;;;4.98;99.13;97626.54;110354;1239;70179;-78
2023/04/08 06:28:12;;;;;;;;;;;;;;;5.18;95.09;97625.23;110447;1241;69711;-78
2023/04/08 06:30:41;;;;;;;;;;;;;;;5.56;99.42;97620.60;110439;1241;58899;-78
2023/04/08 06:33:09;;;;;;;;;;;;;;;5.85;95.17;97619.00;110434;1241;58935;-78
2023/04/08 06:35:38;;;;;;;;;;;;;;;6.22;96.54;97616.80;110366;1240;69856;-78
2023/04/08 06:38:06;;;;;;;;;;;;;;;6.44;92.41;97618.59;110396;1241;69373;-78
2023/04/08 06:40:37;;;;;;;;;;;;;;;6.66;93.73;97621.38;110324;1244;69179;-79
2023/04/08 06:43:08;;;;;;;;;;;;;;;6.65;84.90;97619.52;110357;1241;58943;-78
2023/04/08 06:45:39;;;;;;;;;;;;;;;6.73;86.37;97620.48;110394;1241;58896;-79
2023/04/08 06:48:08;;;;;;;;;;;;;;;6.91;84.02;97621.77;110415;1241;70960;-78
2023/04/08 06:50:36;;;;;;;;;;;;;;;6.76;83.01;97622.73;110326;1243;67394;-77
2023/04/08 06:53:05;;;;;;;;;;;;;;;6.75;82.04;97617.78;110390;1241;68415;-85
2023/04/08 06:55:33;;;;;;;;;;;;;;;6.66;82.55;97620.05;110445;1240;58986;-85
2023/04/08 06:58:02;;;;;;;;;;;;;;;6.79;83.00;97617.75;110357;1242;58943;-83
2023/04/08 07:00:30;;;;;;;;;;;;;;;7.08;82.91;97625.15;110329;1240;70409;-84
2023/04/08 07:02:58;;;;;;;;;;;;;;;7.17;79.13;97625.55;110374;1241;69254;-84
2023/04/08 07:05:27;;;;;;;;;;;;;;;7.42;83.04;97629.32;110347;1241;69388;-83
2023/04/08 07:07:55;;;;;;;;;;;;;;;7.68;80.62;97625.10;110526;1241;58841;-83
2023/04/08 07:10:24;;;;;;;;;;;;;;;7.87;80.87;97623.47;110301;1242;58887;-83
2023/04/08 07:12:53;;;;;;;;;;;;;;;8.33;80.72;97622.11;110284;1241;71472;-84
2023/04/08 07:15:21;;;;;;;;;;;;;;;8.72;76.56;97621.50;110341;1242;69651;-84
2023/04/08 07:17:50;;;;;;;;;;;;;;;8.79;74.31;97619.62;110311;1240;67423;-83
2023/04/08 07:20:18;;;;;;;;;;;;;;;8.41;70.10;97621.44;110304;1240;58883;-84
2023/04/08 07:22:47;;;;;;;;;;;;;;;8.60;72.22;97622.73;110464;1240;58900;-84
2023/04/08 07:25:16;;;;;;;;;;;;;;;8.79;71.53;97621.00;110323;1241;70602;-83
2023/04/08 07:27:44;;;;;;;;;;;;;;;9.09;70.47;97622.45;110378;1241;69820;-84
2023/04/08 07:30:13;;;;;;;;;;;;;;;9.71;72.15;97617.42;110379;1240;68525;-82
2023/04/08 07:32:41;;;;;;;;;;;;;;;10.15;70.10;97613.22;110277;1242;58955;-82
2023/04/08 07:35:10;;;;;;;;;;;;;;;9.63;66.27;97614.63;110366;1243;58912;-81
2023/04/08 07:37:38;;;;;;;;;;;;;;;9.48;63.95;97621.02;110312;1243;70952;-82
2023/04/08 07:40:07;;;;;;;;;;;;;;;9.70;62.59;97622.02;110347;1243;69220;-81
2023/04/08 07:42:35;;;;;;;;;;;;;;;9.83;61.48;97626.51;110290;1239;69085;-82
2023/04/08 07:45:06;;;;;;;;;;;;;;;10.59;62.42;97628.72;110458;1241;59318;-79
2023/04/08 07:47:35;;;;;;;;;;;;;;;11.01;60.74;97634.16;110314;1242;59380;-80
2023/04/08 07:50:04;;;;;;;;;;;;;;;11.24;58.78;97631.64;110269;1242;70566;-82
2023/04/08 07:52:33;;;;;;;;;;;;;;;11.22;57.97;97628.10;110363;1240;69603;-79
2023/04/08 07:55:02;;;;;;;;;;;;;;;11.28;56.93;97626.83;110591;1240;69861;-81
2023/04/08 07:57:31;;;;;;;;;;;;;;;11.45;56.56;97623.44;110296;1245;58895;-80
2023/04/08 07:59:59;;;;;;;;;;;;;;;11.57;56.16;97616.16;110420;1240;58876;-81
2023/04/08 08:02:27;;;;;;;;;;;;;;;11.79;57.20;97613.29;110420;1241;69817;-81
2023/04/08 08:04:56;;;;;;;;;;;;;;;12.21;57.47;97616.11;110478;1240;69271;-82
2023/04/08 08:07:25;;;;;;;;;;;;;;;12.03;54.79;97614.66;110258;1243;68647;-81
2023/04/08 08:09:53;;;;;;;;;;;;;;;12.48;54.18;97621.38;110403;1241;58828;-81
2023/04/08 08:12:21;;;;;;;;;;;;;;;12.57;52.10;97621.57;110457;1241;58836;-81
2023/04/08 08:14:53;;;;;;;;;;;;;;;12.36;50.42;97616.01;110454;1241;70531;-81
2023/04/08 08:17:22;;;;;;;;;;;;;;;11.95;50.94;97616.81;110254;1240;68436;-80
2023/04/08 08:19:51;;;;;;;;;;;;;;;12.03;51.28;97619.05;110333;1242;69283;-80
2023/04/08 08:22:19;;;;;;;;;;;;;;;12.36;53.33;97616.99;110340;1240;58937;-80
2023/04/08 08:24:48;;;;;;;;;;;;;;;12.52;50.42;97619.27;110348;1242;58802;-81
2023/04/08 08:27:16;;;;;;;;;;;;;;;11.95;50.32;97617.69;110325;1240;70466;-80
2023/04/08 08:29:45;;;;;;;;;;;;;;;11.80;51.29;97620.74;110465;1240;69204;-79
2023/04/08 08:32:13;;;;;;;;;;;;;;;11.29;51.46;97621.13;110396;1240;68527;-80
2023/04/08 08:34:42;;;;;;;;;;;;;;;11.24;52.96;97617.71;110641;1240;58933;-80
2023/04/08 08:37:10;;;;;;;;;;;;;;;10.78;50.30;97614.84;110471;1241;58792;-79
2023/04/08 08:39:39;;;;;;;;;;;;;;;10.71;51.85;97612.35;110525;1240;70506;-80
2023/04/08 08:42:17;;;;;;;;;;;;;;;11.25;53.13;97615.88;110552;1240;69240;-82
2023/04/08 08:44:46;;;;;;;;;;;;;;;11.66;51.17;97613.54;110617;1241;69201;-81
2023/04/08 08:47:15;;;;;;;;;;;;;;;11.91;51.79;97613.52;111598;1240;58867;-83
2023/04/08 08:49:44;;;;;;;;;;;;;;;11.82;50.87;97614.85;111858;1240;58909;-80
2023/04/08 08:52:17;;;;;;;;;;;;;;;11.23;49.13;97615.15;110873;1241;70532;-83
2023/04/08 08:54:46;;;;;;;;;;;;;;;11.40;48.60;97616.37;110587;1241;435408;-83
2023/04/08 08:57:18;;;;;;;;;;;;;;;11.97;49.90;97609.17;110461;1241;69122;-83
2023/04/08 08:59:47;;;;;;;;;;;;;;;12.13;48.77;97613.03;110499;1241;58901;-83
2023/04/08 09:02:29;;;;;;;;;;;;;;;12.03;50.89;97616.92;110377;1244;58880;-83
2023/04/08 09:04:58;;;;;;;;;;;;;;;11.97;49.96;97620.50;110362;1242;70005;-83
2023/04/08 09:07:29;;;;;;;;;;;;;;;11.53;48.49;97621.16;110366;1242;69216;-83
2023/04/08 09:09:58;;;;;;;;;;;;;;;11.03;49.94;97623.20;110466;1241;69672;-84
2023/04/08 09:12:27;;;;;;;;;;;;;;;10.85;51.82;97623.95;110405;1240;58958;-84
2023/04/08 09:15:22;;;;;;;;;;;;;;;10.69;51.45;97626.63;110501;1241;58928;-85
2023/04/08 09:17:51;;;;;;;;;;;;;;;10.29;52.34;97630.28;110454;1241;69739;-84
2023/04/08 09:20:19;;;;;;;;;;;;;;;9.84;51.34;97631.49;110426;1240;69299;-82
2023/04/08 09:23:01;;;;;;;;;;;;;;;9.80;52.72;97633.89;110422;1240;69314;-84
2023/04/08 09:25:31;;;;;;;;;;;;;;;9.45;53.39;97637.91;110341;1243;58931;-85
2023/04/08 09:28:01;;;;;;;;;;;;;;;9.19;53.99;97638.70;110477;1241;58876;-84
2023/04/08 09:30:31;;;;;;;;;;;;;;;9.07;54.55;97637.36;110423;1241;71144;-85
2023/04/08 09:33:00;;;;;;;;;;;;;;;8.94;54.64;97640.08;110391;1241;69818;-85
2023/04/08 09:35:28;;;;;;;;;;;;;;;8.83;54.46;97640.80;110405;1241;67562;-85
2023/04/08 09:37:57;;;;;;;;;;;;;;;8.52;54.52;97644.79;110379;1241;58936;-85
2023/04/08 09:40:26;;;;;;;;;;;;;;;8.41;56.21;97644.05;110400;1239;58881;-85
2023/04/08 09:42:56;;;;;;;;;;;;;;;8.26;57.69;97645.80;110405;1241;71200;-84
2023/04/08 09:45:26;;;;;;;;;;;;;;;8.24;58.12;97646.43;110441;1241;69244;-84
2023/04/08 09:48:01;;;;;;;;;;;;;;;8.13;58.97;97648.28;110416;1241;69145;-85
2023/04/08 09:50:38;;;;;;;;;;;;;;;8.20;59.43;97648.39;110367;1241;58937;-85
2023/04/08 09:53:17;;;;;;;;;;;;;;;8.28;59.64;97649.89;110393;1241;58871;-85
2023/04/08 09:55:50;;;;;;;;;;;;;;;8.26;58.72;97656.34;110452;1241;69883;-85
2023/04/08 09:58:26;;;;;;;;;;;;;;;8.20;58.65;97657.61;110389;1241;68672;-84
2023/04/08 10:00:55;;;;;;;;;;;;;;;8.10;59.42;97658.52;110385;1242;69727;-85
2023/04/08 10:03:24;;;;;;;;;;;;;;;7.89;58.49;97657.34;110431;1242;58978;-85
2023/04/08 10:05:53;;;;;;;;;;;;;;;8.05;59.68;97657.60;110473;1243;58828;-84
2023/04/08 10:08:23;;;;;;;;;;;;;;;8.18;58.95;97658.95;110410;1239;70433;-85
2023/04/08 10:10:53;;;;;;;;;;;;;;;8.34;59.43;97658.15;110433;1242;69167;-85
2023/04/08 10:13:21;;;;;;;;;;;;;;;8.30;57.84;97659.09;110376;1241;69181;-84
2023/04/08 10:15:50;;;;;;;;;;;;;;;8.42;57.65;97659.10;110365;1241;58953;-85
2023/04/08 10:18:19;;;;;;;;;;;;;;;8.46;57.71;97659.54;110373;1241;58893;-85
2023/04/08 10:20:48;;;;;;;;;;;;;;;8.47;58.51;97661.23;110433;1241;71226;-85
2023/04/08 10:23:17;;;;;;;;;;;;;;;8.59;57.57;97659.64;110415;1241;69173;-86
2023/04/08 10:25:46;;;;;;;;;;;;;;;8.75;58.23;97661.79;110417;1241;68437;-85
2023/04/08 10:28:16;;;;;;;;;;;;;;;8.93;57.37;97662.40;110406;1242;58888;-85
2023/04/08 10:30:46;;;;;;;;;;;;;;;9.12;58.09;97660.73;110366;1242;58882;-84
2023/04/08 10:33:21;;;;;;;;;;;;;;;9.17;57.39;97664.73;110255;1242;70817;-83
2023/04/08 10:35:53;;;;;;;;;;;;;;;8.79;57.49;97663.77;110254;1243;68105;-82
2023/04/08 10:38:22;;;;;;;;;;;;;;;8.59;58.28;97665.16;110251;1243;69670;-84
2023/04/08 10:40:51;;;;;;;;;;;;;;;8.45;58.38;97665.71;110288;1245;59329;-84
2023/04/08 10:43:19;;;;;;;;;;;;;;;8.31;58.26;97668.59;110287;1242;58943;-82
2023/04/08 10:45:50;;;;;;;;;;;;;;;8.15;58.52;97671.93;110273;1239;70585;-83
2023/04/08 10:48:21;;;;;;;;;;;;;;;8.16;58.67;97670.88;110287;1242;69677;-83
2023/04/08 10:50:56;;;;;;;;;;;;;;;8.21;58.01;97669.19;110282;1244;69289;-83
2023/04/08 10:53:32;;;;;;;;;;;;;;;8.29;58.06;97669.60;110280;1242;58962;-82
2023/04/08 10:56:05;;;;;;;;;;;;;;;8.32;58.48;97670.95;110277;1242;58865;-82
2023/04/08 10:58:34;;;;;;;;;;;;;;;8.37;59.15;97671.36;110279;1245;70438;-83
2023/04/08 11:01:04;;;;;;;;;;;;;;;8.37;58.85;97668.91;110215;1243;68442;-83
2023/04/08 11:03:36;;;;;;;;;;;;;;;8.46;58.67;97671.20;110267;1242;69114;-82
2023/04/08 11:06:06;;;;;;;;;;;;;;;8.51;58.35;97674.73;110193;1242;58945;-82
2023/04/08 11:08:38;;;;;;;;;;;;;;;8.33;58.14;97673.84;110328;1242;58895;-79
2023/04/08 11:11:10;;;;;;;;;;;;;;;8.37;58.62;97673.48;110313;1240;71036;-83
2023/04/08 11:13:44;;;;;;;;;;;;;;;8.33;57.26;97672.48;110281;1242;69881;-83
2023/04/08 11:16:24;;;;;;;;;;;;;;;8.42;57.38;97674.88;110269;1242;69241;-82
2023/04/08 11:18:54;;;;;;;;;;;;;;;8.47;57.12;97674.25;110279;1242;58886;-81
2023/04/08 11:21:24;;;;;;;;;;;;;;;8.52;55.46;97674.67;110312;1242;58936;-83
2023/04/08 11:23:52;;;;;;;;;;;;;;;8.66;56.67;97677.29;110319;1242;70611;-81
2023/04/08 11:26:22;;;;;;;;;;;;;;;8.81;57.60;97673.25;110255;1242;68333;-83
2023/04/08 11:28:51;;;;;;;;;;;;;;;8.91;57.19;97674.88;110237;1240;68526;-83
2023/04/08 11:31:21;;;;;;;;;;;;;;;9.03;57.84;97673.42;110320;1240;58867;-82
2023/04/08 11:33:53;;;;;;;;;;;;;;;9.00;55.95;97672.59;110405;1241;58885;-82
2023/04/08 11:36:22;;;;;;;;;;;;;;;8.87;54.66;97669.39;111144;1240;71933;-82
2023/04/08 11:38:52;;;;;;;;;;;;;;;8.74;54.30;97670.55;111663;1241;67327;-79
2023/04/08 11:41:21;;;;;;;;;;;;;;;8.77;54.75;97672.23;111251;1242;68704;-83
2023/04/08 11:43:50;;;;;;;;;;;;;;;8.96;54.85;97672.84;110355;1242;58932;-83
2023/04/08 11:46:19;;;;;;;;;;;;;;;9.07;54.67;97671.09;110302;1243;58892;-83
2023/04/08 11:49:01;;;;;;;;;;;;;;;9.11;54.31;97669.12;110285;1240;69696;-82
2023/04/08 11:51:29;;;;;;;;;;;;;;;8.92;54.40;97669.59;110213;1243;68502;-82
2023/04/08 11:53:58;;;;;;;;;;;;;;;8.74;54.68;97668.27;110241;1244;69964;-82
2023/04/08 11:56:29;;;;;;;;;;;;;;;8.61;55.22;97673.90;110274;1243;58939;-82
2023/04/08 11:58:58;;;;;;;;;;;;;;;8.65;54.89;97670.05;110266;1242;58950;-83
2023/04/08 12:01:26;;;;;;;;;;;;;;;8.61;54.80;97667.85;110269;1240;70433;-83
2023/04/08 12:03:55;;;;;;;;;;;;;;;8.47;54.54;97665.93;110265;1240;68483;-82
2023/04/08 12:06:26;;;;;;;;;;;;;;;8.51;55.84;97667.94;110266;1242;69149;-80
2023/04/08 12:08:55;;;;;;;;;;;;;;;8.39;55.28;97668.31;110296;1242;58950;-80
2023/04/08 12:11:24;;;;;;;;;;;;;;;8.26;55.33;97668.18;110292;1242;58832;-82
2023/04/08 12:13:53;;;;;;;;;;;;;;;8.35;57.40;97669.58;110287;1240;69847;-82
2023/04/08 12:16:22;;;;;;;;;;;;;;;8.34;56.72;97669.10;110304;1241;68559;-80
2023/04/08 12:18:50;;;;;;;;;;;;;;;8.39;56.77;97669.66;110231;1240;67829;-83
2023/04/08 12:21:19;;;;;;;;;;;;;;;8.46;56.69;97672.58;110266;1243;58911;-82
2023/04/08 12:23:47;;;;;;;;;;;;;;;8.32;55.18;97668.00;110278;1244;58871;-82
2023/04/08 12:26:16;;;;;;;;;;;;;;;8.09;55.64;97666.23;110253;1244;69789;-81
2023/04/08 12:28:45;;;;;;;;;;;;;;;8.02;54.88;97670.63;110242;1246;69648;-81
2023/04/08 12:31:13;;;;;;;;;;;;;;;8.01;55.89;97672.08;110257;1240;69079;-81
2023/04/08 12:33:42;;;;;;;;;;;;;;;8.01;55.66;97668.77;110236;1243;58940;-81
2023/04/08 12:36:10;;;;;;;;;;;;;;;8.05;56.35;97671.48;110256;1243;58880;-81
2023/04/08 12:38:40;;;;;;;;;;;;;;;8.11;56.64;97674.13;110259;1240;70152;-82
2023/04/08 12:41:09;;;;;;;;;;;;;;;8.16;56.11;97674.34;110265;1242;69523;-82
2023/04/08 12:43:38;;;;;;;;;;;;;;;8.07;55.79;97672.42;110372;1239;69100;-81
2023/04/08 12:46:06;;;;;;;;;;;;;;;8.12;56.25;97673.67;110419;1239;58892;-81
2023/04/08 12:48:35;;;;;;;;;;;;;;;8.26;57.58;97670.99;110427;1241;58830;-81
2023/04/08 12:51:04;;;;;;;;;;;;;;;8.31;56.50;97666.36;110382;1241;69644;-80
2023/04/08 12:53:32;;;;;;;;;;;;;;;8.32;55.26;97664.86;110332;1241;69855;-80